Time;durP1;ratioP1;P1;durP2;ratioP2;P2;SDS_P1;SDS_P2;PMS_P1;PMS_P2;Temp;Humidity;BMP_temperature;BMP_pressure;BME280_temperature;BME280_humidity;BME280_pressure;Samples;Min_cycle;Max_cycle;Signal;HPM_P1;HPM_P2
2021/10/11 00:00:22;;;;;;;34.72;19.88;;;3.10;99.90;;;;;;5040746;28;20587;-68
2021/10/11 00:02:49;;;;;;;36.55;20.75;;;3.10;99.90;;;;;;5024553;28;20055;-69
2021/10/11 00:05:17;;;;;;;40.60;22.85;;;3.10;99.90;;;;;;5059903;28;20075;-69
2021/10/11 00:07:44;;;;;;;40.78;21.13;;;3.00;99.90;;;;;;5060427;28;20516;-68
2021/10/11 00:10:19;;;;;;;46.45;25.40;;;3.00;99.90;;;;;;5024829;28;20140;-68
2021/10/11 00:12:48;;;;;;;51.97;26.08;;;3.00;99.90;;;;;;5023281;28;20070;-68
2021/10/11 00:15:16;;;;;;;59.72;28.65;;;3.00;99.90;;;;;;5038847;28;20457;-68
2021/10/11 00:17:44;;;;;;;66.75;31.73;;;3.00;99.90;;;;;;5040893;28;20070;-69
2021/10/11 00:20:12;;;;;;;60.10;29.67;;;3.00;99.90;;;;;;5058382;28;20649;-68
2021/10/11 00:22:39;;;;;;;73.38;33.20;;;3.20;99.90;;;;;;5059303;28;20076;-68
2021/10/11 00:25:07;;;;;;;85.75;38.60;;;3.30;99.90;;;;;;5058135;28;20166;-69
2021/10/11 00:27:35;;;;;;;103.15;45.22;;;3.40;99.90;;;;;;5040457;28;20036;-69
2021/10/11 00:30:05;;;;;;;84.65;36.05;;;3.50;99.90;;;;;;5042349;28;20048;-68
2021/10/11 00:32:32;;;;;;;72.53;35.83;;;3.50;99.90;;;;;;5037098;28;20416;-69
2021/10/11 00:34:59;;;;;;;73.75;35.58;;;3.60;99.90;;;;;;5059799;28;20424;-69
2021/10/11 00:37:25;;;;;;;69.43;31.85;;;3.70;99.90;;;;;;5061303;28;20056;-69
2021/10/11 00:39:52;;;;;;;59.38;30.58;;;3.80;99.90;;;;;;5074053;28;20054;-69
2021/10/11 00:42:19;;;;;;;102.97;48.67;;;3.70;99.90;;;;;;5040790;28;20051;-69
2021/10/11 00:44:46;;;;;;;104.78;46.63;;;3.90;99.90;;;;;;5056633;28;20601;-69
2021/10/11 00:47:13;;;;;;;69.38;34.40;;;3.90;99.90;;;;;;5055730;28;20118;-68
2021/10/11 00:49:40;;;;;;;62.45;32.30;;;3.90;99.90;;;;;;5059735;28;20048;-69
2021/10/11 00:52:07;;;;;;;66.18;33.75;;;3.80;99.90;;;;;;5039951;28;20044;-68
2021/10/11 00:54:34;;;;;;;57.92;31.50;;;3.80;99.90;;;;;;5057306;28;20076;-69
2021/10/11 00:57:01;;;;;;;54.85;28.33;;;3.80;99.90;;;;;;5040921;28;20055;-69
2021/10/11 00:59:27;;;;;;;58.22;30.40;;;3.80;99.90;;;;;;5057885;28;20729;-68
2021/10/11 01:01:54;;;;;;;58.45;30.20;;;3.80;99.90;;;;;;5052050;28;20056;-69
2021/10/11 01:04:21;;;;;;;68.47;32.50;;;3.70;99.90;;;;;;5024977;28;20416;-68
2021/10/11 01:06:48;;;;;;;65.35;33.08;;;3.80;99.90;;;;;;5038641;28;20040;-68
2021/10/11 01:09:15;;;;;;;87.75;40.88;;;3.90;99.90;;;;;;5021192;28;20054;-69
2021/10/11 01:11:42;;;;;;;105.50;47.20;;;4.00;99.90;;;;;;5057386;28;20040;-68
2021/10/11 01:14:10;;;;;;;102.30;49.47;;;4.10;99.90;;;;;;5056721;28;20067;-68
2021/10/11 01:16:37;;;;;;;119.88;54.65;;;4.20;99.90;;;;;;5056881;28;20533;-69
2021/10/11 01:19:04;;;;;;;143.90;63.60;;;4.30;99.90;;;;;;5040862;28;20068;-69
2021/10/11 01:21:31;;;;;;;154.40;65.40;;;4.30;99.90;;;;;;5055482;28;20407;-68
2021/10/11 01:23:58;;;;;;;205.95;78.07;;;4.50;99.90;;;;;;5041055;28;20518;-69
2021/10/11 01:26:42;;;;;;;175.80;73.43;;;4.60;99.90;;;;;;5038161;28;20055;-68
2021/10/11 01:29:10;;;;;;;240.98;91.22;;;4.70;99.90;;;;;;5058918;28;20652;-69
2021/10/11 01:31:38;;;;;;;233.55;89.93;;;4.80;99.90;;;;;;5052977;28;20063;-69
2021/10/11 01:34:05;;;;;;;216.18;82.30;;;5.00;99.90;;;;;;5055470;28;20048;-68
2021/10/11 01:36:32;;;;;;;257.35;98.78;;;5.10;99.90;;;;;;5056311;28;20131;-69
2021/10/11 01:39:02;;;;;;;277.98;103.78;;;5.20;99.90;;;;;;5055444;28;20052;-69
2021/10/11 01:41:29;;;;;;;207.63;87.15;;;5.50;99.90;;;;;;5034336;28;20044;-69
2021/10/11 01:43:56;;;;;;;246.40;98.70;;;5.50;99.90;;;;;;5039723;28;20052;-69
2021/10/11 01:46:23;;;;;;;246.02;96.32;;;5.70;99.90;;;;;;5039324;28;20598;-69
2021/10/11 01:48:50;;;;;;;285.15;111.53;;;5.70;99.90;;;;;;5055621;28;20139;-69
2021/10/11 01:51:17;;;;;;;193.35;79.25;;;6.00;99.90;;;;;;5055888;28;20530;-68
2021/10/11 01:53:43;;;;;;;274.52;109.93;;;6.00;99.90;;;;;;5054208;28;20122;-69
2021/10/11 01:56:11;;;;;;;302.38;115.70;;;6.10;99.90;;;;;;5069857;28;20523;-68
2021/10/11 01:58:37;;;;;;;334.00;123.88;;;6.30;99.90;;;;;;5038805;28;20135;-69
2021/10/11 02:01:04;;;;;;;363.58;127.38;;;6.50;99.90;;;;;;5054548;28;20044;-69
2021/10/11 02:03:31;;;;;;;356.38;129.40;;;6.50;99.90;;;;;;5056589;28;20106;-70
2021/10/11 02:05:58;;;;;;;340.75;130.13;;;6.70;99.90;;;;;;5051417;28;20450;-68
2021/10/11 02:08:25;;;;;;;352.35;125.90;;;6.80;99.90;;;;;;5055875;28;20051;-69
2021/10/11 02:10:52;;;;;;;339.00;123.22;;;6.80;99.90;;;;;;5054115;28;20197;-69
2021/10/11 02:13:19;;;;;;;327.05;125.18;;;6.90;99.90;;;;;;5038053;28;20048;-69
2021/10/11 02:15:46;;;;;;;332.35;127.93;;;7.00;99.90;;;;;;5055558;28;20155;-69
2021/10/11 02:18:13;;;;;;;286.80;105.70;;;7.10;99.90;;;;;;5056777;28;20076;-69
2021/10/11 02:20:40;;;;;;;336.65;126.32;;;7.20;99.90;;;;;;5037662;28;20048;-69
2021/10/11 02:23:07;;;;;;;371.83;131.13;;;7.20;99.90;;;;;;5057014;28;20620;-69
2021/10/11 02:25:33;;;;;;;328.10;122.88;;;7.50;99.90;;;;;;5039344;28;20440;-69
2021/10/11 02:28:00;;;;;;;267.42;105.45;;;7.50;99.90;;;;;;5054911;28;20160;-68
2021/10/11 02:30:27;;;;;;;301.83;118.25;;;7.50;99.90;;;;;;5039939;28;20101;-69
2021/10/11 02:32:54;;;;;;;329.95;129.05;;;7.50;99.90;;;;;;5054087;28;20213;-69
2021/10/11 02:35:21;;;;;;;312.38;124.82;;;7.70;99.90;;;;;;5053864;28;20055;-69
2021/10/11 02:37:48;;;;;;;329.15;129.23;;;7.70;99.90;;;;;;5022549;28;20044;-69
2021/10/11 02:40:15;;;;;;;291.02;119.47;;;7.80;99.90;;;;;;5054843;28;20048;-69
2021/10/11 02:42:42;;;;;;;296.27;119.43;;;7.90;99.90;;;;;;5055533;28;20075;-69
2021/10/11 02:45:09;;;;;;;273.95;116.07;;;8.00;99.90;;;;;;5039696;28;20041;-69
2021/10/11 02:47:36;;;;;;;261.42;110.13;;;8.10;99.90;;;;;;5039012;28;20041;-69
2021/10/11 02:50:04;;;;;;;255.15;108.22;;;8.00;99.90;;;;;;5057076;28;20055;-68
2021/10/11 02:52:35;;;;;;;268.42;113.18;;;8.10;99.90;;;;;;5039902;28;20047;-69
2021/10/11 02:55:04;;;;;;;256.23;108.25;;;8.20;99.90;;;;;;5038818;28;20140;-69
2021/10/11 02:57:31;;;;;;;246.50;103.95;;;8.20;99.90;;;;;;5055761;28;20139;-69
2021/10/11 02:59:57;;;;;;;252.15;103.65;;;8.20;99.90;;;;;;5055339;28;20706;-69
2021/10/11 03:02:24;;;;;;;229.30;103.20;;;8.20;99.90;;;;;;5036063;28;20128;-69
2021/10/11 03:04:51;;;;;;;236.15;104.55;;;8.20;99.90;;;;;;5036528;28;20246;-69
2021/10/11 03:07:18;;;;;;;231.07;102.43;;;8.20;99.90;;;;;;5053045;28;20049;-69
2021/10/11 03:09:45;;;;;;;253.30;107.47;;;8.30;99.90;;;;;;5039174;28;20212;-69
2021/10/11 03:12:12;;;;;;;267.23;111.18;;;8.30;99.90;;;;;;5036785;28;20374;-69
2021/10/11 03:14:39;;;;;;;285.25;117.30;;;8.40;99.90;;;;;;5040425;28;20056;-69
2021/10/11 03:17:12;;;;;;;290.73;120.00;;;8.40;99.90;;;;;;5041660;28;20053;-69
2021/10/11 03:19:40;;;;;;;301.02;125.78;;;8.50;99.90;;;;;;5044013;28;20566;-69
2021/10/11 03:22:06;;;;;;;321.48;127.53;;;8.60;99.90;;;;;;5061461;28;20059;-69
2021/10/11 03:24:34;;;;;;;311.95;124.80;;;8.70;99.90;;;;;;5043528;28;20104;-69
2021/10/11 03:27:01;;;;;;;312.88;128.13;;;8.80;99.90;;;;;;5026287;28;20135;-69
2021/10/11 03:29:28;;;;;;;339.52;128.93;;;8.90;99.90;;;;;;5057108;28;20581;-69
2021/10/11 03:31:55;;;;;;;343.30;131.48;;;9.00;99.90;;;;;;5041271;28;20677;-69
2021/10/11 03:34:22;;;;;;;346.88;132.10;;;9.00;99.90;;;;;;5062014;28;20052;-69
2021/10/11 03:36:49;;;;;;;357.70;136.50;;;9.00;99.90;;;;;;5042316;28;20202;-70
2021/10/11 03:39:16;;;;;;;380.00;139.43;;;9.00;99.90;;;;;;5040668;28;20052;-70
2021/10/11 03:41:43;;;;;;;374.33;140.23;;;9.00;99.90;;;;;;5042522;28;20343;-70
2021/10/11 03:44:10;;;;;;;390.52;137.52;;;9.00;99.90;;;;;;5059888;28;20054;-70
2021/10/11 03:46:37;;;;;;;376.05;131.77;;;9.00;99.90;;;;;;5057196;28;20068;-71
2021/10/11 03:49:04;;;;;;;430.65;143.43;;;9.00;99.90;;;;;;5043155;28;20066;-71
2021/10/11 03:51:32;;;;;;;437.45;145.65;;;9.10;99.90;;;;;;5040339;28;20082;-71
2021/10/11 03:54:00;;;;;;;446.73;146.13;;;9.10;99.90;;;;;;5042868;28;20051;-71
2021/10/11 03:56:26;;;;;;;494.27;153.18;;;9.20;99.90;;;;;;5042274;28;20045;-72
2021/10/11 03:58:53;;;;;;;496.65;156.15;;;9.20;99.90;;;;;;5042361;28;20323;-71
2021/10/11 04:01:20;;;;;;;485.40;153.10;;;9.10;99.90;;;;;;5055880;28;20056;-73
2021/10/11 04:03:49;;;;;;;488.33;151.10;;;9.10;99.90;;;;;;5055866;28;20082;-73
2021/10/11 04:06:17;;;;;;;435.60;143.48;;;9.10;99.90;;;;;;5024387;28;20063;-75
2021/10/11 04:08:47;;;;;;;520.75;154.45;;;9.20;99.90;;;;;;5041050;28;20040;-73
2021/10/11 04:13:44;;;;;;;459.00;145.48;;;9.20;99.90;;;;;;5042454;28;20044;-73
2021/10/11 04:16:11;;;;;;;451.63;142.80;;;9.10;99.90;;;;;;5040643;28;20610;-73
2021/10/11 04:18:39;;;;;;;399.15;130.50;;;9.10;99.90;;;;;;5059098;28;20114;-73
2021/10/11 04:21:06;;;;;;;398.60;128.63;;;9.20;99.90;;;;;;5041636;28;20720;-73
2021/10/11 04:23:33;;;;;;;366.10;118.40;;;9.20;99.90;;;;;;5041536;28;20049;-73
2021/10/11 04:25:59;;;;;;;306.52;105.75;;;9.30;99.90;;;;;;5042249;28;20040;-73
2021/10/11 04:28:26;;;;;;;287.35;101.22;;;9.30;99.90;;;;;;5041448;28;20098;-73
2021/10/11 04:30:56;;;;;;;258.73;96.05;;;9.30;99.90;;;;;;5033533;28;20079;-73
2021/10/11 04:33:24;;;;;;;251.18;87.00;;;9.30;99.90;;;;;;5062966;28;20167;-73
2021/10/11 04:35:52;;;;;;;230.60;87.28;;;9.30;99.90;;;;;;5030768;28;20056;-73
2021/10/11 04:38:19;;;;;;;222.93;80.75;;;9.30;99.90;;;;;;5077626;28;20059;-74
2021/10/11 04:40:46;;;;;;;204.07;75.90;;;9.30;99.90;;;;;;5061841;28;20053;-74
2021/10/11 04:43:13;;;;;;;167.63;65.20;;;9.30;99.90;;;;;;5041902;28;20072;-74
2021/10/11 04:45:40;;;;;;;173.27;67.00;;;9.30;99.90;;;;;;5041772;28;20448;-73
2021/10/11 04:48:10;;;;;;;199.63;70.65;;;9.30;99.90;;;;;;5040593;28;20143;-74
2021/10/11 04:50:37;;;;;;;191.52;69.72;;;9.30;99.90;;;;;;5037838;28;20131;-73
2021/10/11 04:53:06;;;;;;;201.10;71.10;;;9.30;99.90;;;;;;5036028;28;20052;-73
2021/10/11 04:55:33;;;;;;;266.02;79.05;;;9.30;99.90;;;;;;5041879;28;20760;-73
2021/10/11 04:58:00;;;;;;;308.92;86.30;;;9.30;99.90;;;;;;5057467;28;20408;-73
2021/10/11 05:00:28;;;;;;;358.15;90.30;;;9.20;99.90;;;;;;5038252;28;20083;-73
2021/10/11 05:02:55;;;;;;;554.25;106.18;;;9.20;99.90;;;;;;5053409;28;20477;-72
2021/10/11 05:05:23;;;;;;;751.28;125.38;;;9.20;99.90;;;;;;5037813;28;20126;-73
2021/10/11 05:07:50;;;;;;;829.50;130.57;;;9.10;99.90;;;;;;5039521;28;20082;-72
2021/10/11 05:10:17;;;;;;;1000.60;149.30;;;9.10;99.90;;;;;;5054923;28;20442;-72
2021/10/11 05:12:44;;;;;;;987.33;147.73;;;9.10;99.90;;;;;;5039864;28;20048;-72
2021/10/11 05:15:11;;;;;;;1088.32;158.00;;;9.20;99.90;;;;;;5040048;28;20042;-73
2021/10/11 05:17:39;;;;;;;1098.18;164.18;;;9.10;99.90;;;;;;5056224;28;20055;-72
2021/10/11 05:20:07;;;;;;;990.67;156.50;;;9.10;99.90;;;;;;5023059;28;20139;-73
2021/10/11 05:22:34;;;;;;;1147.40;166.40;;;9.10;99.90;;;;;;5057194;28;20087;-73
2021/10/11 05:25:00;;;;;;;1108.20;165.95;;;9.10;99.90;;;;;;5040129;28;20048;-72
2021/10/11 05:27:27;;;;;;;1058.03;160.75;;;9.10;99.90;;;;;;5037894;28;20540;-73
2021/10/11 05:29:54;;;;;;;917.25;150.13;;;9.10;99.90;;;;;;5065684;28;20118;-73
2021/10/11 05:32:21;;;;;;;962.80;156.40;;;9.10;99.90;;;;;;5023439;28;20051;-73
2021/10/11 05:34:49;;;;;;;1091.72;174.90;;;9.20;99.90;;;;;;5036342;28;20041;-74
2021/10/11 05:37:16;;;;;;;1143.30;178.38;;;9.20;99.90;;;;;;5035188;28;20507;-73
2021/10/11 05:39:43;;;;;;;1037.95;177.25;;;9.20;99.90;;;;;;5018452;28;20040;-73
2021/10/11 05:42:10;;;;;;;1086.55;177.95;;;9.20;99.90;;;;;;5019113;28;20067;-74
2021/10/11 05:44:38;;;;;;;1045.38;175.05;;;9.20;99.90;;;;;;5004084;28;20053;-72
2021/10/11 05:47:04;;;;;;;1062.75;176.88;;;9.10;99.90;;;;;;5051342;28;20032;-72
2021/10/11 05:49:31;;;;;;;1272.38;192.75;;;9.20;99.90;;;;;;5039357;28;20481;-72
2021/10/11 05:51:59;;;;;;;1036.35;180.40;;;9.20;99.90;;;;;;5053723;28;20048;-73
2021/10/11 05:54:27;;;;;;;1052.93;181.50;;;9.10;99.90;;;;;;5055693;28;20056;-71
2021/10/11 05:56:57;;;;;;;1029.20;179.73;;;9.10;99.90;;;;;;5048919;28;20052;-72
2021/10/11 05:59:24;;;;;;;1114.93;192.63;;;9.20;99.90;;;;;;5055632;28;20243;-71
2021/10/11 06:01:51;;;;;;;1174.55;208.48;;;9.10;99.90;;;;;;5038361;28;20466;-72
2021/10/11 06:04:18;;;;;;;1390.28;217.00;;;9.10;99.90;;;;;;5038207;28;20055;-72
2021/10/11 06:06:45;;;;;;;1136.05;197.20;;;9.10;99.90;;;;;;5035044;28;20451;-72
2021/10/11 06:09:12;;;;;;;1208.82;209.52;;;9.00;99.90;;;;;;5055105;28;20122;-72
2021/10/11 06:11:41;;;;;;;1140.68;196.45;;;9.00;99.90;;;;;;5029813;28;20102;-73
2021/10/11 06:14:08;;;;;;;1047.63;195.05;;;9.00;99.90;;;;;;5049444;28;20060;-73
2021/10/11 06:16:35;;;;;;;703.75;158.25;;;9.10;99.90;;;;;;5056112;28;20143;-74
2021/10/11 06:19:02;;;;;;;1048.28;186.52;;;9.10;99.90;;;;;;5058573;28;20056;-74
2021/10/11 06:21:30;;;;;;;660.72;153.63;;;9.20;99.90;;;;;;5026187;28;20155;-74
2021/10/11 06:23:57;;;;;;;563.40;135.73;;;9.10;99.90;;;;;;5036612;28;20040;-73
2021/10/11 06:26:23;;;;;;;549.30;138.98;;;9.20;99.90;;;;;;5045100;28;20787;-73
2021/10/11 06:28:50;;;;;;;567.80;135.60;;;9.20;99.90;;;;;;5050732;28;20500;-73
2021/10/11 06:31:17;;;;;;;406.08;121.78;;;9.20;99.90;;;;;;5036575;28;20056;-72
2021/10/11 06:33:44;;;;;;;452.73;131.25;;;9.30;99.90;;;;;;5056290;28;20078;-73
2021/10/11 06:36:11;;;;;;;418.48;126.38;;;9.20;99.90;;;;;;5038446;28;20049;-74
2021/10/11 06:38:39;;;;;;;431.73;124.68;;;9.30;99.90;;;;;;5055872;28;20063;-74
2021/10/11 06:41:06;;;;;;;459.38;126.78;;;9.30;99.90;;;;;;5021389;28;20044;-75
2021/10/11 06:43:33;;;;;;;458.80;125.97;;;9.40;99.90;;;;;;5055416;28;20053;-75
2021/10/11 06:46:00;;;;;;;602.85;146.80;;;9.30;99.90;;;;;;5018575;28;20223;-74
2021/10/11 06:48:27;;;;;;;717.85;157.75;;;9.10;99.90;;;;;;5029517;28;20037;-75
2021/10/11 06:50:54;;;;;;;784.50;161.93;;;9.20;99.90;;;;;;5040206;28;20694;-74
2021/10/11 06:53:20;;;;;;;814.72;166.07;;;9.20;99.90;;;;;;5044026;28;20060;-74
2021/10/11 06:55:47;;;;;;;796.25;165.55;;;9.30;99.90;;;;;;5060316;28;20040;-74
2021/10/11 06:58:14;;;;;;;769.22;163.45;;;9.30;99.90;;;;;;5042864;28;20139;-75
2021/10/11 07:00:41;;;;;;;917.33;170.85;;;9.20;99.90;;;;;;5038911;28;20070;-73
2021/10/11 07:03:09;;;;;;;1142.18;199.30;;;9.20;99.90;;;;;;5043011;28;20485;-75
2021/10/11 07:05:35;;;;;;;1086.97;195.68;;;9.20;99.90;;;;;;5041668;28;20056;-74
2021/10/11 07:08:09;;;;;;;868.58;172.02;;;9.30;99.90;;;;;;5075125;28;20083;-73
2021/10/11 07:10:38;;;;;;;858.80;175.38;;;9.40;99.90;;;;;;5053464;28;20056;-76
2021/10/11 07:13:05;;;;;;;839.08;169.38;;;9.40;99.90;;;;;;5041785;28;20036;-74
2021/10/11 07:15:33;;;;;;;1037.97;197.63;;;9.40;99.90;;;;;;5042705;28;20090;-74
2021/10/11 07:18:01;;;;;;;880.15;173.35;;;9.40;99.90;;;;;;5056446;28;20044;-74
2021/10/11 07:20:27;;;;;;;919.00;179.25;;;9.30;99.90;;;;;;5040115;28;20053;-73
2021/10/11 07:22:54;;;;;;;933.47;179.85;;;9.30;99.90;;;;;;5058904;28;20090;-73
2021/10/11 07:25:22;;;;;;;1036.95;204.90;;;9.30;99.90;;;;;;5026502;28;20143;-73
2021/10/11 07:27:49;;;;;;;978.78;188.45;;;9.30;99.90;;;;;;5057851;28;20044;-74
2021/10/11 07:30:16;;;;;;;1137.57;206.25;;;9.30;99.90;;;;;;5045611;28;20117;-74
2021/10/11 07:32:43;;;;;;;794.13;163.73;;;9.30;99.90;;;;;;5071412;28;20043;-74
2021/10/11 07:35:10;;;;;;;1224.35;218.07;;;9.40;99.90;;;;;;5024706;28;20140;-74
2021/10/11 07:37:52;;;;;;;1040.47;201.32;;;9.50;99.90;;;;;;5054501;28;20127;-74
2021/10/11 07:40:32;;;;;;;1189.90;193.52;;;9.60;99.90;;;;;;5025887;28;20048;-74
2021/10/11 07:42:59;;;;;;;1373.05;220.25;;;9.60;99.90;;;;;;5023122;28;20421;-74
2021/10/11 07:45:26;;;;;;;1137.57;196.13;;;9.70;99.90;;;;;;5042972;28;20080;-74
2021/10/11 07:47:52;;;;;;;991.00;185.18;;;9.80;99.90;;;;;;5058810;28;20071;-74
2021/10/11 07:50:19;;;;;;;940.60;171.25;;;9.80;99.90;;;;;;5057125;28;20500;-74
2021/10/11 07:52:46;;;;;;;950.00;178.48;;;9.80;99.90;;;;;;5058588;28;20118;-74
2021/10/11 07:55:13;;;;;;;1062.05;185.93;;;9.80;99.90;;;;;;5060000;28;20037;-74
2021/10/11 07:57:42;;;;;;;944.60;171.00;;;9.70;99.90;;;;;;5041731;28;20051;-74
2021/10/11 08:00:13;;;;;;;959.42;172.95;;;9.80;99.90;;;;;;5041454;28;20549;-74
2021/10/11 08:02:41;;;;;;;1033.22;176.93;;;9.80;99.90;;;;;;5048473;28;20120;-74
2021/10/11 08:05:13;;;;;;;1138.03;185.05;;;9.80;99.90;;;;;;5063063;28;20047;-73
2021/10/11 08:07:41;;;;;;;1110.32;175.10;;;9.80;99.90;;;;;;5059501;28;20051;-73
2021/10/11 08:10:10;;;;;;;966.60;157.43;;;9.80;99.90;;;;;;5041336;28;20114;-73
2021/10/11 08:12:37;;;;;;;905.92;148.80;;;9.90;99.90;;;;;;5043117;28;20124;-74
2021/10/11 08:15:06;;;;;;;978.90;162.70;;;9.90;99.90;;;;;;5058092;28;20424;-74
2021/10/11 08:17:33;;;;;;;832.08;149.05;;;9.90;99.90;;;;;;5028295;28;20515;-76
2021/10/11 08:20:00;;;;;;;834.55;149.20;;;9.90;99.90;;;;;;5022325;28;20103;-74
2021/10/11 08:22:28;;;;;;;366.98;95.85;;;10.00;99.90;;;;;;5022279;28;20509;-72
2021/10/11 08:24:55;;;;;;;443.85;104.07;;;9.90;99.90;;;;;;5057503;28;20048;-75
2021/10/11 08:27:22;;;;;;;308.05;89.57;;;9.90;99.90;;;;;;5057656;28;20629;-74
2021/10/11 08:29:52;;;;;;;314.40;90.43;;;9.90;99.90;;;;;;5041682;28;20048;-74
2021/10/11 08:32:24;;;;;;;271.52;81.75;;;9.90;99.90;;;;;;5021231;28;20041;-74
2021/10/11 08:34:52;;;;;;;233.52;70.90;;;10.00;99.90;;;;;;5026568;28;20628;-73
2021/10/11 08:37:21;;;;;;;245.50;74.63;;;10.00;99.90;;;;;;5055380;28;20047;-75
2021/10/11 08:39:49;;;;;;;198.52;63.03;;;9.90;99.90;;;;;;5043001;28;20049;-74
2021/10/11 08:42:17;;;;;;;180.98;60.65;;;9.90;99.90;;;;;;5051978;28;20472;-74
2021/10/11 08:44:45;;;;;;;187.75;62.20;;;9.90;99.90;;;;;;5060245;28;20053;-73
2021/10/11 08:47:13;;;;;;;141.48;51.20;;;9.90;99.90;;;;;;5056758;28;20045;-72
2021/10/11 08:49:43;;;;;;;178.32;58.50;;;9.90;99.90;;;;;;5038598;28;20036;-73
2021/10/11 08:52:11;;;;;;;130.57;49.03;;;10.00;99.90;;;;;;5058250;28;20548;-73
2021/10/11 08:54:39;;;;;;;124.55;46.10;;;10.10;99.90;;;;;;5037288;28;20037;-73
2021/10/11 08:57:07;;;;;;;141.52;50.67;;;10.20;99.90;;;;;;5038901;28;20179;-73
2021/10/11 08:59:50;;;;;;;119.75;45.28;;;10.30;99.90;;;;;;5056808;28;20048;-73
2021/10/11 09:02:24;;;;;;;114.55;44.67;;;10.40;99.90;;;;;;5021780;28;20049;-74
2021/10/11 09:04:56;;;;;;;116.45;46.35;;;10.20;99.90;;;;;;5041078;28;20270;-73
2021/10/11 09:07:27;;;;;;;118.53;45.28;;;10.20;99.90;;;;;;5039188;28;20045;-72
2021/10/11 09:09:57;;;;;;;121.00;48.35;;;10.20;99.90;;;;;;5021217;28;20048;-73
2021/10/11 09:12:31;;;;;;;105.65;42.10;;;10.20;99.90;;;;;;5040996;28;20047;-72
2021/10/11 09:15:10;;;;;;;110.07;43.78;;;10.10;99.90;;;;;;5024988;28;20110;-74
2021/10/11 09:17:42;;;;;;;102.15;40.28;;;10.30;99.90;;;;;;5034685;28;20453;-72
2021/10/11 09:20:14;;;;;;;115.47;44.65;;;10.20;99.90;;;;;;5038922;28;20102;-72
2021/10/11 09:22:44;;;;;;;105.05;42.35;;;10.30;99.90;;;;;;5056899;28;20048;-72
2021/10/11 09:25:12;;;;;;;96.20;40.10;;;10.40;99.90;;;;;;5041059;28;20072;-73
2021/10/11 09:27:55;;;;;;;71.60;33.15;;;10.50;99.90;;;;;;5037613;28;20041;-72
2021/10/11 09:30:28;;;;;;;83.50;39.28;;;10.40;99.90;;;;;;5057123;28;20080;-73
2021/10/11 09:33:05;;;;;;;73.03;34.17;;;10.60;99.90;;;;;;5057261;28;20091;-72
2021/10/11 09:35:33;;;;;;;66.13;31.65;;;10.50;99.90;;;;;;5040934;28;20037;-72
2021/10/11 09:38:00;;;;;;;74.32;33.63;;;10.40;99.90;;;;;;5039154;28;20247;-72
2021/10/11 09:40:40;;;;;;;74.45;31.50;;;10.40;99.90;;;;;;5054823;28;20445;-71
2021/10/11 09:43:13;;;;;;;70.40;32.33;;;10.30;99.90;;;;;;5040635;28;20129;-72
2021/10/11 09:45:41;;;;;;;80.75;36.70;;;10.40;99.90;;;;;;5057687;28;20572;-74
2021/10/11 09:48:09;;;;;;;78.35;35.63;;;10.40;99.90;;;;;;5035981;28;20047;-74
2021/10/11 09:50:37;;;;;;;76.47;36.38;;;10.40;99.90;;;;;;5049366;28;20068;-72
2021/10/11 09:53:06;;;;;;;87.65;38.05;;;10.40;99.90;;;;;;5040887;28;20098;-73
2021/10/11 09:55:34;;;;;;;65.10;31.50;;;10.60;99.90;;;;;;5055884;28;20063;-72
2021/10/11 09:58:01;;;;;;;85.72;35.88;;;10.60;99.90;;;;;;5042288;28;20043;-72
2021/10/11 10:00:28;;;;;;;74.15;33.53;;;10.70;99.90;;;;;;5052786;28;20471;-72
2021/10/11 10:02:56;;;;;;;74.90;33.22;;;10.80;99.90;;;;;;5039911;28;20175;-72
2021/10/11 10:05:34;;;;;;;69.03;33.00;;;11.00;99.90;;;;;;5056283;28;20055;-72
2021/10/11 10:08:08;;;;;;;61.17;30.88;;;11.10;99.90;;;;;;5039347;28;20041;-72
2021/10/11 10:10:36;;;;;;;60.10;30.10;;;11.20;99.90;;;;;;5037846;28;20040;-72
2021/10/11 10:13:21;;;;;;;55.60;30.05;;;11.30;99.90;;;;;;5055554;28;20402;-72
2021/10/11 10:15:48;;;;;;;54.40;27.88;;;11.30;99.90;;;;;;5039387;28;20402;-72
2021/10/11 10:18:19;;;;;;;56.85;28.42;;;11.40;99.90;;;;;;5037037;28;20044;-72
2021/10/11 10:21:04;;;;;;;55.15;28.23;;;11.40;99.90;;;;;;5055653;28;20080;-71
2021/10/11 10:23:42;;;;;;;62.90;33.80;;;11.40;99.90;;;;;;5039103;28;20062;-72
2021/10/11 10:26:24;;;;;;;53.28;26.25;;;11.50;99.90;;;;;;5055346;28;20158;-72
2021/10/11 10:28:53;;;;;;;57.67;27.70;;;11.50;99.90;;;;;;5036836;28;20649;-72
2021/10/11 10:31:35;;;;;;;44.85;21.55;;;11.60;99.90;;;;;;5056288;28;20251;-73
2021/10/11 10:34:23;;;;;;;46.95;22.85;;;11.50;99.90;;;;;;5055125;28;20052;-72
2021/10/11 10:37:04;;;;;;;44.97;22.40;;;11.60;99.90;;;;;;5038370;28;20111;-71
2021/10/11 10:39:38;;;;;;;46.45;23.02;;;11.60;99.90;;;;;;5050892;28;20147;-71
2021/10/11 10:42:08;;;;;;;46.28;21.60;;;11.60;99.90;;;;;;5054174;28;20129;-71
2021/10/11 10:44:45;;;;;;;35.17;18.98;;;11.60;99.90;;;;;;5039775;28;20075;-72
2021/10/11 10:47:13;;;;;;;44.67;20.65;;;11.60;99.90;;;;;;5038450;28;20106;-71
2021/10/11 10:49:47;;;;;;;47.95;22.63;;;11.50;99.90;;;;;;5054659;28;20102;-71
2021/10/11 10:52:19;;;;;;;44.78;21.75;;;11.50;99.90;;;;;;5052661;28;20085;-71
2021/10/11 10:54:49;;;;;;;48.78;21.95;;;11.40;99.90;;;;;;5039387;28;20198;-71
2021/10/11 10:57:25;;;;;;;45.97;24.02;;;11.20;99.90;;;;;;5020166;28;20074;-72
2021/10/11 10:59:58;;;;;;;44.00;23.05;;;11.20;99.90;;;;;;5052085;28;20131;-72
2021/10/11 11:02:28;;;;;;;;;;;11.20;99.90;;;;;;5053380;28;20253;-72
2021/10/11 11:04:59;;;;;;;57.47;25.83;;;11.20;99.90;;;;;;5043028;28;20753;-72
2021/10/11 11:07:31;;;;;;;47.53;21.55;;;11.20;99.90;;;;;;5036577;28;20381;-72
2021/10/11 11:10:00;;;;;;;38.50;17.60;;;11.10;99.90;;;;;;5037624;28;20029;-72
2021/10/11 11:12:34;;;;;;;47.47;20.92;;;11.10;99.90;;;;;;5036961;28;20048;-72
2021/10/11 11:15:03;;;;;;;32.58;15.88;;;11.20;99.90;;;;;;5054919;28;20183;-74
2021/10/11 11:17:35;;;;;;;34.45;14.40;;;11.20;99.90;;;;;;5037424;28;20462;-72
2021/10/11 11:20:15;;;;;;;32.60;15.25;;;11.00;99.90;;;;;;5052189;28;20131;-73
2021/10/11 11:22:42;;;;;;;40.20;17.65;;;11.00;99.90;;;;;;5054335;28;20053;-72
2021/10/11 11:25:10;;;;;;;37.10;17.75;;;11.10;99.90;;;;;;5053727;28;20050;-72
2021/10/11 11:27:43;;;;;;;27.83;14.32;;;11.50;99.90;;;;;;5052804;28;20045;-72
2021/10/11 11:30:15;;;;;;;29.15;13.27;;;11.90;99.90;;;;;;5021096;28;20356;-74
2021/10/11 11:32:51;;;;;;;22.67;10.50;;;11.80;99.90;;;;;;5056164;28;20139;-73
2021/10/11 11:35:36;;;;;;;28.35;9.93;;;11.80;99.90;;;;;;5054630;28;20336;-73
2021/10/11 11:38:07;;;;;;;24.85;9.93;;;11.90;99.90;;;;;;5057385;28;20576;-73
2021/10/11 11:40:37;;;;;;;18.35;8.43;;;12.00;99.90;;;;;;5058260;28;20125;-73
2021/10/11 11:43:06;;;;;;;19.25;9.23;;;12.30;99.90;;;;;;5058340;28;20044;-72
2021/10/11 11:45:42;;;;;;;26.08;10.23;;;12.40;99.90;;;;;;5057927;28;20498;-72
2021/10/11 11:48:09;;;;;;;22.90;8.50;;;12.50;99.90;;;;;;5042662;28;20474;-73
2021/10/11 11:50:36;;;;;;;21.38;9.10;;;12.50;99.90;;;;;;5054152;28;20075;-73
2021/10/11 11:53:06;;;;;;;25.02;10.43;;;12.40;99.90;;;;;;5041200;28;20040;-73
2021/10/11 11:55:34;;;;;;;27.65;11.05;;;12.40;99.90;;;;;;5057971;28;20493;-72
2021/10/11 11:58:02;;;;;;;21.27;8.80;;;12.40;99.90;;;;;;5055089;28;20075;-72
2021/10/11 12:00:32;;;;;;;19.13;9.23;;;12.50;99.90;;;;;;5051160;28;20060;-74
2021/10/11 12:03:02;;;;;;;18.17;8.45;;;12.50;99.90;;;;;;5057341;28;20530;-74
2021/10/11 12:05:29;;;;;;;21.42;8.48;;;12.40;99.90;;;;;;5051378;28;20083;-73
2021/10/11 12:07:56;;;;;;;18.60;5.97;;;12.50;99.90;;;;;;5040566;28;20049;-73
2021/10/11 12:10:25;;;;;;;26.92;6.45;;;12.40;99.90;;;;;;5024025;28;20135;-74
2021/10/11 12:13:04;;;;;;;9.20;5.43;;;12.30;99.90;;;;;;5023310;28;20094;-72
2021/10/11 12:15:33;;;;;;;29.02;9.27;;;12.20;99.90;;;;;;5041517;28;20083;-71
2021/10/11 12:18:03;;;;;;;30.48;8.73;;;12.20;99.90;;;;;;5055700;28;20087;-72
2021/10/11 12:20:44;;;;;;;32.95;10.55;;;12.10;99.90;;;;;;5073987;28;20060;-72
2021/10/11 12:23:12;;;;;;;26.75;8.52;;;11.90;99.90;;;;;;5058509;28;20703;-72
2021/10/11 12:25:41;;;;;;;17.85;5.97;;;11.90;99.90;;;;;;5040533;28;20075;-71
2021/10/11 12:28:16;;;;;;;18.48;6.70;;;12.00;99.90;;;;;;5055677;28;20048;-71
2021/10/11 12:30:45;;;;;;;16.95;7.07;;;12.20;99.90;;;;;;5056172;28;20045;-71
2021/10/11 12:33:17;;;;;;;20.27;6.95;;;12.10;99.90;;;;;;5058986;28;20120;-72